Погода Журавлевна неделю

Ростовская область, Россия

13 - 19 июля
  • 13июля
    Сегодня
    +17°
    +32°
    Ясно и безоблачно
    ВремяПогодаТемператураВлажностьДавлениеВетер, м/сВероятность осадков
    00:00Ясно и безоблачно+22°C28 %749 мм4.2 м/с2 %
    03:00Ясно и безоблачно+19°C37 %749 мм3.1 м/с2 %
    06:00Ясно и безоблачно+19°C42 %749 мм3.3 м/с2 %
    09:00Ясно и безоблачно+27°C26 %750 мм3.8 м/с2 %
    12:00Ясно и безоблачно+30°C21 %749 мм3.4 м/с2 %
    15:00Ясно и безоблачно+31°C16 %747 мм4.6 м/с2 %
    18:00Ясно и безоблачно+30°C15 %747 мм4.5 м/с2 %
    21:00Ясно и безоблачно+24°C21 %748 мм2.6 м/с2 %
  • 14июля
    Воскресенье
    +20°
    +33°
    Ясно и безоблачно
    ВремяПогодаТемператураВлажностьДавлениеВетер, м/сВероятность осадков
    00:00Ясно и безоблачно+20°C28 %747 мм2.8 м/с2 %
    03:00Ясно и безоблачно+18°C38 %748 мм2.8 м/с2 %
    06:00Ясно и безоблачно+19°C50 %748 мм3.3 м/с2 %
    09:00Ясно и безоблачно+27°C25 %748 мм3.2 м/с2 %
    12:00Ясно и безоблачно+31°C19 %747 мм3.3 м/с2 %
    15:00Ясно и безоблачно+33°C17 %747 мм4.0 м/с2 %
    18:00Ясно и безоблачно+32°C15 %747 мм4.4 м/с2 %
    21:00Ясно и безоблачно+25°C20 %747 мм3.5 м/с2 %
  • 15июля
    Понедельник
    +23°
    +37°
    Ясно и безоблачно
    ВремяПогодаТемператураВлажностьДавлениеВетер, м/сВероятность осадков
    00:00Ясно и безоблачно+23°C27 %747 мм3.3 м/с2 %
    03:00Ясно и безоблачно+20°C36 %747 мм2.3 м/с2 %
    06:00Ясно и безоблачно+22°C48 %747 мм3.0 м/с2 %
    09:00Ясно и безоблачно+31°C32 %748 мм3.2 м/с2 %
    12:00Ясно и безоблачно+35°C25 %748 мм3.4 м/с2 %
    15:00Ясно и безоблачно+37°C22 %747 мм3.8 м/с2 %
    18:00Ясно и безоблачно+36°C22 %747 мм4.7 м/с2 %
    21:00Ясно и безоблачно+30°C25 %747 мм2.4 м/с2 %
  • 16июля
    Вторник
    +24°
    +39°
    Практически безоблачно
    ВремяПогодаТемператураВлажностьДавлениеВетер, м/сВероятность осадков
    00:00Ясно и безоблачно+27°C31 %747 мм2.3 м/с2 %
    03:00Ясно и безоблачно+24°C38 %747 мм2.0 м/с2 %
    06:00Ясно и безоблачно+25°C40 %747 мм1.5 м/с2 %
    09:00Ясно и безоблачно+33°C27 %748 мм0.8 м/с2 %
    12:00Практически безоблачно+37°C22 %748 мм2.5 м/с2 %
    15:00Практически безоблачно+39°C20 %747 мм3.0 м/с2 %
    18:00Ясно и безоблачно+37°C22 %747 мм3.0 м/с2 %
    21:00Ясно и безоблачно+31°C32 %747 мм4.1 м/с2 %
Мы используем cookies
Соглашаюсь